createdAt,value
2023-02-20T00:00:41.976Z,15.67
2023-02-20T00:03:09.138Z,16.97
2023-02-20T00:05:36.806Z,16.63
2023-02-20T00:08:03.953Z,15.07
2023-02-20T00:10:32.914Z,16.23
2023-02-20T00:13:00.109Z,16.70
2023-02-20T00:15:27.181Z,15.47
2023-02-20T00:17:54.365Z,16.07
2023-02-20T00:20:23.903Z,15.90
2023-02-20T00:22:52.356Z,14.90
2023-02-20T00:25:21.131Z,17.63
2023-02-20T00:27:48.433Z,17.93
2023-02-20T00:30:21.135Z,16.73
2023-02-20T00:32:50.937Z,16.43
2023-02-20T00:35:19.189Z,16.27
2023-02-20T00:37:48.000Z,20.60
2023-02-20T00:40:16.927Z,15.67
2023-02-20T00:42:44.096Z,15.87
2023-02-20T00:45:12.082Z,16.77
2023-02-20T00:47:39.258Z,18.07
2023-02-20T00:50:07.377Z,16.20
2023-02-20T00:52:36.302Z,15.47
2023-02-20T00:55:03.959Z,16.97
2023-02-20T00:57:31.613Z,16.73
2023-02-20T00:59:58.674Z,16.13
2023-02-20T01:02:25.823Z,17.73
2023-02-20T01:04:53.703Z,16.97
2023-02-20T01:07:21.094Z,17.00
2023-02-20T01:09:48.230Z,15.90
2023-02-20T01:12:16.232Z,15.10
2023-02-20T01:14:43.362Z,16.80
2023-02-20T01:17:12.455Z,17.07
2023-02-20T01:19:39.618Z,16.63
2023-02-20T01:22:09.001Z,16.63
2023-02-20T01:24:36.410Z,16.23
2023-02-20T01:27:03.645Z,15.20
2023-02-20T01:29:31.130Z,15.30
2023-02-20T01:31:59.579Z,15.97
2023-02-20T01:34:27.192Z,15.83
2023-02-20T01:36:56.739Z,15.23
2023-02-20T01:39:28.384Z,13.13
2023-02-20T01:41:59.319Z,15.10
2023-02-20T01:44:30.145Z,13.33
2023-02-20T01:47:01.951Z,13.97
2023-02-20T01:49:34.648Z,11.83
2023-02-20T01:52:27.041Z,12.10
2023-02-20T01:55:06.313Z,11.27
2023-02-20T01:57:36.276Z,12.30
2023-02-20T02:00:10.171Z,12.33
2023-02-20T02:02:50.244Z,12.73
2023-02-20T02:05:18.770Z,11.83
2023-02-20T02:07:46.191Z,13.40
2023-02-20T02:10:16.862Z,13.90
2023-02-20T02:12:49.652Z,13.27
2023-02-20T02:15:19.815Z,11.13
2023-02-20T02:17:57.166Z,12.20
2023-02-20T02:20:49.270Z,13.03
2023-02-20T02:23:45.076Z,14.00
2023-02-20T02:26:32.079Z,14.90
2023-02-20T02:29:20.737Z,12.77
2023-02-20T02:32:11.632Z,14.07
2023-02-20T02:35:02.036Z,13.50
2023-02-20T02:37:30.817Z,14.80
2023-02-20T02:40:19.049Z,14.60
2023-02-20T02:43:00.161Z,15.07
2023-02-20T02:45:54.992Z,13.07
2023-02-20T02:48:36.106Z,15.07
2023-02-20T02:51:10.102Z,14.43
2023-02-20T02:53:37.258Z,14.73
2023-02-20T02:56:21.700Z,14.50
2023-02-20T02:58:51.522Z,12.77
2023-02-20T03:01:20.867Z,12.93
2023-02-20T03:03:53.091Z,14.77
2023-02-20T03:06:29.472Z,13.00
2023-02-20T03:09:07.571Z,14.55
2023-02-20T03:11:36.381Z,12.13
2023-02-20T03:14:44.418Z,13.77
2023-02-20T03:17:39.313Z,14.63
2023-02-20T03:20:10.011Z,12.83
2023-02-20T03:22:46.011Z,12.23
2023-02-20T03:25:31.330Z,12.67
2023-02-20T03:28:11.985Z,13.37
2023-02-20T03:30:57.306Z,16.77
2023-02-20T03:34:01.195Z,14.57
2023-02-20T03:37:00.552Z,15.87
2023-02-20T03:39:51.764Z,13.90
2023-02-20T03:42:40.284Z,14.17
2023-02-20T03:45:23.392Z,13.53
2023-02-20T03:47:55.082Z,12.53
2023-02-20T03:50:41.366Z,13.23
2023-02-20T03:53:08.895Z,12.43
2023-02-20T03:55:36.776Z,13.47
2023-02-20T03:58:13.905Z,12.63
2023-02-20T04:00:47.269Z,12.83
2023-02-20T04:03:20.618Z,12.80
2023-02-20T04:05:54.015Z,13.30
2023-02-20T04:08:36.670Z,11.50
2023-02-20T04:11:10.879Z,11.73
2023-02-20T04:13:40.006Z,11.47
2023-02-20T04:16:09.132Z,13.37
2023-02-20T04:18:36.582Z,13.57
2023-02-20T04:21:14.980Z,12.87
2023-02-20T04:26:18.106Z,10.43
2023-02-20T04:28:47.673Z,13.57
2023-02-20T04:31:18.217Z,14.70
2023-02-20T04:33:46.498Z,12.63
2023-02-20T04:36:19.084Z,12.30
2023-02-20T04:38:46.649Z,12.53
2023-02-20T04:41:16.695Z,11.30
2023-02-20T04:43:43.754Z,14.43
2023-02-20T04:46:11.215Z,11.10
2023-02-20T04:48:38.415Z,12.47
2023-02-20T04:51:06.718Z,12.27
2023-02-20T04:53:35.819Z,11.47
2023-02-20T04:56:02.937Z,10.83
2023-02-20T04:58:31.333Z,11.63
2023-02-20T05:01:05.349Z,12.30
2023-02-20T05:03:32.488Z,11.67
2023-02-20T05:05:59.856Z,12.10
2023-02-20T05:08:26.980Z,11.67
2023-02-20T05:10:54.052Z,12.27
2023-02-20T05:13:21.106Z,11.13
2023-02-20T05:15:48.264Z,12.20
2023-02-20T05:18:26.636Z,11.43
2023-02-20T05:21:12.716Z,11.63
2023-02-20T05:23:40.478Z,11.97
2023-02-20T05:26:12.807Z,12.57
2023-02-20T05:28:40.279Z,12.90
2023-02-20T05:31:08.859Z,13.17
2023-02-20T05:33:36.228Z,12.80
2023-02-20T05:36:04.360Z,14.70
2023-02-20T05:38:31.544Z,14.83
2023-02-20T05:40:58.695Z,14.27
2023-02-20T05:43:25.878Z,12.40
2023-02-20T05:45:53.130Z,12.73
2023-02-20T05:48:20.433Z,11.77
2023-02-20T05:50:47.675Z,13.23
2023-02-20T05:53:17.983Z,11.60
2023-02-20T05:55:45.026Z,10.37
2023-02-20T05:58:12.110Z,13.63
2023-02-20T06:00:39.131Z,11.77
2023-02-20T06:03:08.136Z,11.43
2023-02-20T06:05:35.213Z,11.23
2023-02-20T06:08:02.608Z,13.60
2023-02-20T06:10:29.604Z,14.10
2023-02-20T06:12:56.678Z,12.60
2023-02-20T06:15:23.746Z,12.13
2023-02-20T06:17:50.954Z,12.23
2023-02-20T06:20:18.202Z,11.83
2023-02-20T06:22:45.365Z,12.17
2023-02-20T06:25:14.164Z,12.40
2023-02-20T06:27:41.426Z,11.10
2023-02-20T06:30:09.446Z,12.63
2023-02-20T06:32:37.626Z,12.60
2023-02-20T06:35:05.759Z,12.37
2023-02-20T06:37:32.906Z,11.63
2023-02-20T06:40:00.332Z,11.30
2023-02-20T06:42:27.543Z,13.13
2023-02-20T06:44:54.608Z,12.37
2023-02-20T06:47:22.671Z,12.27
2023-02-20T06:49:50.020Z,13.60
2023-02-20T06:52:17.282Z,12.07
2023-02-20T06:54:45.063Z,11.40
2023-02-20T06:57:12.258Z,10.30
2023-02-20T06:59:42.565Z,12.97
2023-02-20T07:02:12.484Z,12.23
2023-02-20T07:04:39.739Z,13.47
2023-02-20T07:07:07.194Z,12.77
2023-02-20T07:09:34.285Z,13.03
2023-02-20T07:12:01.431Z,13.23
2023-02-20T07:14:28.453Z,13.10
2023-02-20T07:16:55.508Z,11.67
2023-02-20T07:19:22.580Z,12.57
2023-02-20T07:21:49.777Z,14.30
2023-02-20T07:24:17.113Z,14.23
2023-02-20T07:26:44.101Z,13.13
2023-02-20T07:29:13.432Z,13.03
2023-02-20T07:31:40.743Z,11.47
2023-02-20T07:34:08.589Z,12.33
2023-02-20T07:36:38.281Z,15.13
2023-02-20T07:39:06.902Z,14.23
2023-02-20T07:41:37.165Z,12.13
2023-02-20T07:44:06.951Z,13.67
2023-02-20T07:46:34.417Z,16.83
2023-02-20T07:49:05.261Z,16.13
2023-02-20T07:51:33.139Z,12.13
2023-02-20T07:54:00.726Z,14.30
2023-02-20T07:56:28.021Z,14.37
2023-02-20T07:58:55.179Z,10.90
2023-02-20T08:01:22.358Z,12.83
2023-02-20T08:03:49.461Z,11.77
2023-02-20T08:06:20.189Z,11.63
2023-02-20T08:08:50.410Z,12.70
2023-02-20T08:11:21.282Z,13.73
2023-02-20T08:13:49.413Z,12.67
2023-02-20T08:16:17.064Z,12.20
2023-02-20T08:18:44.405Z,12.10
2023-02-20T08:21:11.531Z,14.03
2023-02-20T08:23:38.729Z,13.63
2023-02-20T08:26:06.496Z,12.73
2023-02-20T08:28:34.084Z,12.23
2023-02-20T08:31:01.536Z,14.83
2023-02-20T08:33:28.682Z,14.27
2023-02-20T08:35:57.567Z,13.27
2023-02-20T08:38:31.004Z,13.30
2023-02-20T08:40:58.980Z,11.77
2023-02-20T08:43:27.977Z,13.40
2023-02-20T08:45:55.981Z,14.67
2023-02-20T08:48:23.382Z,12.50
2023-02-20T08:50:50.537Z,11.53
2023-02-20T08:53:17.670Z,14.10
2023-02-20T08:55:44.728Z,13.87
2023-02-20T08:58:12.256Z,13.67
2023-02-20T09:00:41.703Z,14.00
2023-02-20T09:03:08.952Z,13.83
2023-02-20T09:05:38.180Z,13.13
2023-02-20T09:08:06.346Z,12.97
2023-02-20T09:10:33.713Z,13.20
2023-02-20T09:13:01.243Z,15.33
2023-02-20T09:15:29.377Z,13.43
2023-02-20T09:17:56.430Z,12.23
2023-02-20T09:20:23.623Z,14.17
2023-02-20T09:22:51.360Z,15.37
2023-02-20T09:25:19.860Z,14.10
2023-02-20T09:27:47.061Z,13.73
2023-02-20T09:30:22.119Z,14.20
2023-02-20T09:32:50.657Z,14.43
2023-02-20T09:35:25.428Z,12.70
2023-02-20T09:37:53.189Z,12.47
2023-02-20T09:40:30.387Z,14.07
2023-02-20T09:43:24.532Z,13.20
2023-02-20T09:46:14.482Z,11.73
2023-02-20T09:49:07.415Z,11.30
2023-02-20T09:51:39.023Z,12.80
2023-02-20T09:54:17.893Z,12.63
2023-02-20T09:56:50.850Z,11.23
2023-02-20T09:59:39.801Z,11.57
2023-02-20T10:02:23.650Z,13.47
2023-02-20T10:05:01.222Z,11.67
2023-02-20T10:07:35.107Z,14.20
2023-02-20T10:10:18.168Z,13.10
2023-02-20T10:13:28.544Z,15.50
2023-02-20T10:16:07.943Z,17.10
2023-02-20T10:18:41.041Z,13.43
2023-02-20T10:21:13.729Z,17.33
2023-02-20T10:23:56.679Z,15.13
2023-02-20T10:26:40.076Z,14.03
2023-02-20T10:29:35.017Z,14.35
2023-02-20T10:32:04.831Z,13.40
2023-02-20T10:34:37.032Z,14.37
2023-02-20T10:37:11.826Z,12.77
2023-02-20T10:39:49.782Z,14.50
2023-02-20T10:42:23.349Z,13.40
2023-02-20T10:45:20.852Z,15.80
2023-02-20T10:48:00.714Z,15.95
2023-02-20T10:50:33.163Z,15.83
2023-02-20T10:53:12.789Z,14.23
2023-02-20T10:56:00.841Z,15.50
2023-02-20T10:58:43.876Z,14.37
2023-02-20T11:01:16.400Z,16.10
2023-02-20T11:04:11.633Z,14.37
2023-02-20T11:06:45.251Z,14.90
2023-02-20T11:09:13.179Z,16.87
2023-02-20T11:11:46.820Z,16.00
2023-02-20T11:14:25.490Z,14.77
2023-02-20T11:17:10.816Z,15.07
2023-02-20T11:19:41.027Z,15.00
2023-02-20T11:22:08.691Z,14.47
2023-02-20T11:24:40.896Z,15.03
2023-02-20T11:27:12.860Z,16.47
2023-02-20T11:29:49.304Z,17.23
2023-02-20T11:32:41.726Z,16.80
2023-02-20T11:35:18.891Z,15.50
2023-02-20T11:38:17.886Z,14.83
2023-02-20T11:40:55.050Z,15.33
2023-02-20T11:43:37.441Z,13.80
2023-02-20T11:46:13.841Z,17.03
2023-02-20T11:49:01.924Z,14.50
2023-02-20T11:51:37.391Z,16.63
2023-02-20T11:54:24.543Z,16.23
2023-02-20T11:57:16.208Z,16.25
2023-02-20T11:59:48.853Z,14.23
2023-02-20T12:02:15.940Z,17.10
2023-02-20T12:05:10.023Z,15.27
2023-02-20T12:07:43.630Z,15.63
2023-02-20T12:10:48.749Z,15.53
2023-02-20T12:13:17.692Z,16.33
2023-02-20T12:15:52.709Z,17.47
2023-02-20T12:18:38.166Z,14.90
2023-02-20T12:21:10.932Z,14.57
2023-02-20T12:23:53.478Z,14.50
2023-02-20T12:26:38.586Z,13.87
2023-02-20T12:29:27.777Z,15.63
2023-02-20T12:32:15.126Z,14.02
2023-02-20T12:34:42.434Z,13.77
2023-02-20T12:37:30.222Z,13.67
2023-02-20T12:40:00.140Z,14.53
2023-02-20T12:42:49.698Z,15.30
2023-02-20T12:45:17.002Z,14.53
2023-02-20T12:47:45.928Z,14.63
2023-02-20T12:50:44.003Z,15.67
2023-02-20T12:56:01.240Z,16.30
2023-02-20T12:58:52.857Z,16.27
2023-02-20T13:01:34.216Z,16.53
2023-02-20T13:04:32.340Z,15.87
2023-02-20T13:07:35.222Z,16.90
2023-02-20T13:10:17.082Z,17.77
2023-02-20T13:12:46.839Z,16.53
2023-02-20T13:15:43.780Z,15.03
2023-02-20T13:18:21.663Z,16.10
2023-02-20T13:21:05.534Z,16.17
2023-02-20T13:23:35.460Z,17.77
2023-02-20T13:26:05.187Z,16.97
2023-02-20T13:28:44.420Z,18.70
2023-02-20T13:31:19.056Z,16.30
2023-02-20T13:34:06.168Z,16.93
2023-02-20T13:36:39.128Z,19.05
2023-02-20T13:39:21.781Z,16.80
2023-02-20T13:41:55.240Z,17.87
2023-02-20T13:44:28.860Z,18.70
2023-02-20T13:47:05.032Z,15.37
2023-02-20T13:49:50.280Z,17.92
2023-02-20T13:52:29.544Z,17.17
2023-02-20T13:55:04.557Z,16.63
2023-02-20T13:57:36.256Z,17.60
2023-02-20T14:00:35.470Z,16.20
2023-02-20T14:03:29.492Z,16.00
2023-02-20T14:06:04.777Z,16.70
2023-02-20T14:08:32.009Z,18.33
2023-02-20T14:11:12.860Z,17.20
2023-02-20T14:13:44.459Z,16.67
2023-02-20T14:16:31.188Z,17.07
2023-02-20T14:19:00.966Z,16.50
2023-02-20T14:21:30.160Z,16.57
2023-02-20T14:23:57.974Z,16.53
2023-02-20T14:26:32.304Z,16.80
2023-02-20T14:29:00.974Z,16.23
2023-02-20T14:31:36.759Z,15.50
2023-02-20T14:34:38.524Z,15.57
2023-02-20T14:37:15.237Z,14.47
2023-02-20T14:39:54.334Z,17.53
2023-02-20T14:42:24.613Z,18.97
2023-02-20T14:45:00.873Z,18.07
2023-02-20T14:47:28.655Z,17.88
2023-02-20T14:50:09.663Z,15.37
2023-02-20T14:52:36.674Z,16.07
2023-02-20T14:55:07.221Z,18.63
2023-02-20T14:57:35.200Z,17.23
2023-02-20T15:00:35.000Z,15.83
2023-02-20T15:03:20.677Z,15.37
2023-02-20T15:06:00.000Z,13.87
2023-02-20T15:08:32.548Z,15.37
2023-02-20T15:11:10.904Z,16.50
2023-02-20T15:13:43.680Z,16.70
2023-02-20T15:16:26.255Z,15.33
2023-02-20T15:18:53.823Z,16.63
2023-02-20T15:21:40.071Z,17.10
2023-02-20T15:24:25.354Z,16.40
2023-02-20T15:26:53.109Z,15.77
2023-02-20T15:29:28.652Z,17.07
2023-02-20T15:32:15.840Z,17.00
2023-02-20T15:34:43.190Z,16.23
2023-02-20T15:37:38.163Z,18.23
2023-02-20T15:40:37.114Z,16.63
2023-02-20T15:43:23.952Z,18.63
2023-02-20T15:45:56.936Z,18.60
2023-02-20T15:48:24.086Z,17.90
2023-02-20T15:50:51.624Z,19.23
2023-02-20T15:53:22.668Z,21.73
2023-02-20T15:55:52.452Z,19.63
2023-02-20T15:58:35.419Z,20.33
2023-02-20T16:01:03.083Z,16.87
2023-02-20T16:03:41.560Z,16.13
2023-02-20T16:06:13.173Z,18.37
2023-02-20T16:08:40.403Z,18.23
2023-02-20T16:11:07.476Z,18.90
2023-02-20T16:13:43.549Z,17.40
2023-02-20T16:16:24.807Z,16.15
2023-02-20T16:18:55.201Z,17.40
2023-02-20T16:21:24.300Z,18.07
2023-02-20T16:23:52.444Z,19.70
2023-02-20T16:26:22.615Z,17.80
2023-02-20T16:28:56.417Z,20.33
2023-02-20T16:31:55.840Z,18.17
2023-02-20T16:34:28.422Z,18.43
2023-02-20T16:36:55.581Z,19.53
2023-02-20T16:39:27.514Z,20.73
2023-02-20T16:41:58.292Z,17.87
2023-02-20T16:44:41.718Z,20.47
2023-02-20T16:47:17.934Z,18.00
2023-02-20T16:49:45.293Z,22.48
2023-02-20T16:52:18.054Z,21.63
2023-02-20T16:54:47.925Z,20.90
2023-02-20T16:57:15.487Z,17.73
2023-02-20T16:59:43.100Z,19.73
2023-02-20T17:02:19.221Z,21.90
2023-02-20T17:04:47.624Z,18.30
2023-02-20T17:07:15.674Z,24.07
2023-02-20T17:09:46.300Z,20.53
2023-02-20T17:12:17.538Z,20.73
2023-02-20T17:14:45.693Z,18.90
2023-02-20T17:17:15.911Z,21.13
2023-02-20T17:19:44.192Z,20.93
2023-02-20T17:22:13.530Z,20.00
2023-02-20T17:24:42.627Z,21.77
2023-02-20T17:27:11.481Z,18.80
2023-02-20T17:29:42.087Z,17.63
2023-02-20T17:32:09.351Z,21.80
2023-02-20T17:34:36.727Z,20.90
2023-02-20T17:37:04.606Z,20.03
2023-02-20T17:39:31.857Z,23.10
2023-02-20T17:41:59.506Z,21.73
2023-02-20T17:44:31.244Z,17.47
2023-02-20T17:47:00.643Z,20.93
2023-02-20T17:49:28.093Z,17.47
2023-02-20T17:52:01.017Z,17.90
2023-02-20T17:54:32.443Z,19.97
2023-02-20T17:57:00.680Z,24.03
2023-02-20T17:59:28.003Z,20.90
2023-02-20T18:01:55.165Z,25.50
2023-02-20T18:04:23.327Z,22.37
2023-02-20T18:06:50.498Z,20.60
2023-02-20T18:09:18.638Z,18.93
2023-02-20T18:11:46.584Z,19.10
2023-02-20T18:14:14.788Z,24.90
2023-02-20T18:16:45.032Z,21.63
2023-02-20T18:19:14.008Z,19.73
2023-02-20T18:21:42.894Z,20.07
2023-02-20T18:24:11.205Z,19.40
2023-02-20T18:26:38.954Z,18.27
2023-02-20T18:29:06.118Z,17.20
2023-02-20T18:31:34.079Z,16.97
2023-02-20T18:34:02.130Z,17.43
2023-02-20T18:36:29.991Z,15.60
2023-02-20T18:38:57.937Z,16.27
2023-02-20T18:41:26.105Z,21.20
2023-02-20T18:43:53.254Z,18.67
2023-02-20T18:46:28.626Z,17.97
2023-02-20T18:48:56.159Z,20.03
2023-02-20T18:51:30.927Z,17.53
2023-02-20T18:53:58.254Z,20.07
2023-02-20T18:56:27.640Z,19.00
2023-02-20T18:58:55.485Z,18.33
2023-02-20T19:01:23.364Z,18.10
2023-02-20T19:03:53.662Z,23.83
2023-02-20T19:06:29.988Z,21.77
2023-02-20T19:08:57.132Z,24.00
2023-02-20T19:11:24.399Z,27.70
2023-02-20T19:13:51.740Z,29.50
2023-02-20T19:16:19.307Z,28.67
2023-02-20T19:18:50.733Z,26.23
2023-02-20T19:21:19.896Z,25.07
2023-02-20T19:23:47.975Z,23.20
2023-02-20T19:26:16.153Z,24.30
2023-02-20T19:28:43.479Z,22.90
2023-02-20T19:31:11.886Z,23.33
2023-02-20T19:33:39.935Z,23.90
2023-02-20T19:36:10.238Z,23.77
2023-02-20T19:38:39.550Z,25.67
2023-02-20T19:41:06.843Z,23.20
2023-02-20T19:43:34.977Z,21.57
2023-02-20T19:46:05.719Z,27.73
2023-02-20T19:48:33.083Z,20.43
2023-02-20T19:51:00.330Z,22.13
2023-02-20T19:53:28.351Z,23.17
2023-02-20T19:55:55.410Z,22.80
2023-02-20T19:58:22.556Z,25.50
2023-02-20T20:00:49.711Z,25.67
2023-02-20T20:03:16.936Z,27.13
2023-02-20T20:05:44.357Z,25.47
2023-02-20T20:08:11.806Z,23.80
2023-02-20T20:10:40.017Z,19.97
2023-02-20T20:13:07.183Z,23.60
2023-02-20T20:15:37.289Z,24.50
2023-02-20T20:18:04.507Z,27.43
2023-02-20T20:20:33.188Z,22.83
2023-02-20T20:23:03.248Z,25.67
2023-02-20T20:25:30.299Z,23.00
2023-02-20T20:28:01.198Z,23.83
2023-02-20T20:30:30.576Z,24.73
2023-02-20T20:32:58.062Z,20.77
2023-02-20T20:35:27.125Z,21.10
2023-02-20T20:37:55.196Z,20.87
2023-02-20T20:40:24.227Z,19.50
2023-02-20T20:42:51.310Z,17.90
2023-02-20T20:45:19.899Z,22.17
2023-02-20T20:47:48.587Z,26.07
2023-02-20T20:50:18.405Z,22.77
2023-02-20T20:52:45.567Z,19.20
2023-02-20T20:55:13.094Z,24.83
2023-02-20T20:57:41.434Z,25.87
2023-02-20T21:00:20.629Z,25.83
2023-02-20T21:02:48.169Z,21.67
2023-02-20T21:05:15.529Z,23.20
2023-02-20T21:07:42.662Z,24.23
2023-02-20T21:10:10.718Z,26.70
2023-02-20T21:12:38.688Z,25.17
2023-02-20T21:15:07.870Z,23.77
2023-02-20T21:17:35.173Z,23.03
2023-02-20T21:20:06.746Z,26.57
2023-02-20T21:22:35.085Z,24.97
2023-02-20T21:25:02.861Z,23.80
2023-02-20T21:27:31.778Z,24.83
2023-02-20T21:29:58.886Z,26.27
2023-02-20T21:32:26.869Z,25.63
2023-02-20T21:34:54.201Z,25.87
2023-02-20T21:37:21.499Z,26.23
2023-02-20T21:39:48.477Z,26.43
2023-02-20T21:42:39.234Z,28.70
2023-02-20T21:45:09.480Z,24.00
2023-02-20T21:47:37.490Z,26.37
2023-02-20T21:50:08.907Z,24.00
2023-02-20T21:52:39.407Z,30.40
2023-02-20T21:55:10.538Z,30.40
2023-02-20T21:57:37.588Z,24.30
2023-02-20T22:00:07.206Z,28.33
2023-02-20T22:02:34.335Z,32.83
2023-02-20T22:05:01.374Z,30.53
2023-02-20T22:07:49.019Z,28.10
2023-02-20T22:10:34.489Z,25.63
2023-02-20T22:13:20.087Z,29.93
2023-02-20T22:16:05.518Z,24.90
2023-02-20T22:18:51.150Z,23.70
2023-02-20T22:21:42.816Z,23.53
2023-02-20T22:24:37.720Z,27.70
2023-02-20T22:27:24.741Z,29.20
2023-02-20T22:30:10.389Z,25.65
2023-02-20T22:32:56.136Z,26.97
2023-02-20T22:35:42.429Z,26.03
2023-02-20T22:38:28.248Z,28.97
2023-02-20T22:41:14.304Z,27.83
2023-02-20T22:44:00.039Z,25.47
2023-02-20T22:46:45.941Z,28.83
2023-02-20T22:49:32.131Z,29.23
2023-02-20T22:52:17.670Z,26.40
2023-02-20T22:55:05.126Z,20.00
2023-02-20T22:57:52.051Z,27.57
2023-02-20T23:00:38.666Z,30.48
2023-02-20T23:03:24.929Z,26.85
2023-02-20T23:06:19.717Z,28.43
2023-02-20T23:09:08.811Z,28.87
2023-02-20T23:11:56.022Z,27.40
2023-02-20T23:14:42.077Z,30.05
2023-02-20T23:17:43.155Z,28.77
2023-02-20T23:20:33.909Z,25.77
2023-02-20T23:23:19.934Z,27.07
2023-02-20T23:26:05.614Z,27.77
2023-02-20T23:28:51.720Z,29.40
2023-02-20T23:31:37.786Z,27.63
2023-02-20T23:34:23.899Z,25.80
2023-02-20T23:37:11.615Z,24.50
2023-02-20T23:39:57.101Z,21.83
2023-02-20T23:42:42.831Z,25.83
2023-02-20T23:45:28.524Z,26.57
2023-02-20T23:48:14.011Z,31.03
2023-02-20T23:50:59.524Z,25.10
2023-02-20T23:53:45.201Z,24.13
2023-02-20T23:56:30.745Z,31.60
2023-02-20T23:59:16.859Z,31.97
